Terminal Aerodrome Forecast
Issued by NWS Burlington, VT

Home | Current Version | Previous Version | Text Only | Print | Product List | Glossary On
Versions: 1 2 3 4 5 6 7 8 9 10 11 12
000
FTUS41 KBTV 291136
TAFBTV
TAF
KBTV 291136Z 2912/3012 07005KT P6SM BKN250
     FM291500 05005KT P6SM SCT040 SCT150 BKN200
     FM291800 01010KT P6SM FEW040 SCT150 BKN200
     FM300000 VRB03KT P6SM SCT150 BKN200=

USA.gov is the U.S. government's official web portal to all federal, state and local government web resources and services.